Bridgewater, Maine
Current Conditions -  °F | °C
As of 11:35 PM on Thursday 20 Nov 2014 (Local Time) from KPQI Reporting Station
Clear Clear  
Wind Chill: 14°   Ceiling: Unl
Heat Index: 21°   Visibility: 10mi
Dew Point: 12°   Wind: 6mph
Humidity: 68%   Direction: 240°WSW
Pressure: 29.68"   Gusts: NA
Location:  46.43°N, 67.84°W
Report Text: KPQI 210435Z AUTO 24005KT 10SM CLR M06/M11 A2968 RMK AO1
Loading
Personal Weather Stations






























Interactive Weather Map New forecast layout! Learn more

10-Day Weather Forecast

Advertisements
Track Severe Weather on mobile